Time;durP1;ratioP1;P1;durP2;ratioP2;P2;SDS_P1;SDS_P2;PMS_P1;PMS_P2;Temp;Humidity;BMP_temperature;BMP_pressure;BME280_temperature;BME280_humidity;BME280_pressure;Samples;Min_cycle;Max_cycle;Signal;HPM_P1;HPM_P2
2023/01/26 00:02:11;;;;;;;111.88;32.78;;;1.40;99.90;;;;;;5036187;28;20018;-71
2023/01/26 00:04:36;;;;;;;139.43;32.28;;;1.30;99.90;;;;;;5036267;28;20067;-71
2023/01/26 00:07:02;;;;;;;116.13;30.83;;;1.40;99.90;;;;;;5020412;28;20032;-71
2023/01/26 00:09:27;;;;;;;123.05;32.88;;;1.40;99.90;;;;;;5033509;28;20029;-71
2023/01/26 00:11:53;;;;;;;107.28;30.20;;;1.30;99.90;;;;;;5036533;28;20068;-71
2023/01/26 00:14:18;;;;;;;127.05;29.35;;;1.30;99.90;;;;;;5022818;28;20439;-72
2023/01/26 00:16:44;;;;;;;108.82;29.65;;;1.40;99.90;;;;;;5034213;28;20025;-71
2023/01/26 00:19:09;;;;;;;110.72;30.83;;;1.40;99.90;;;;;;5015755;28;20030;-71
2023/01/26 00:21:35;;;;;;;87.45;27.42;;;1.40;99.90;;;;;;5015878;28;20065;-71
2023/01/26 00:24:01;;;;;;;107.82;30.42;;;1.40;99.90;;;;;;5016027;28;20049;-71
2023/01/26 00:26:27;;;;;;;107.18;27.33;;;1.40;99.90;;;;;;5018743;28;20026;-71
2023/01/26 00:28:53;;;;;;;116.35;28.83;;;1.40;99.90;;;;;;5035475;28;20029;-72
2023/01/26 00:31:25;;;;;;;114.40;31.13;;;1.50;99.90;;;;;;5035440;28;20494;-71
2023/01/26 00:33:51;;;;;;;88.28;28.00;;;1.40;99.90;;;;;;5035708;28;20156;-72
2023/01/26 00:36:17;;;;;;;101.40;27.45;;;1.50;99.90;;;;;;5035243;28;20033;-71
2023/01/26 00:38:42;;;;;;;93.20;24.65;;;1.50;99.90;;;;;;5035470;28;20096;-70
2023/01/26 00:41:09;;;;;;;86.07;24.63;;;1.50;99.90;;;;;;5034519;28;20091;-71
2023/01/26 00:43:34;;;;;;;89.13;25.02;;;1.60;99.90;;;;;;5035020;28;20033;-71
2023/01/26 00:46:00;;;;;;;92.60;25.77;;;1.50;99.90;;;;;;5034974;28;20021;-71
2023/01/26 00:48:25;;;;;;;95.80;26.02;;;1.50;99.90;;;;;;5035204;28;20022;-71
2023/01/26 00:50:52;;;;;;;104.28;26.35;;;1.60;99.90;;;;;;5035250;28;20025;-71
2023/01/26 00:53:18;;;;;;;88.05;26.88;;;1.60;99.90;;;;;;5034814;28;20018;-71
2023/01/26 00:55:43;;;;;;;85.85;26.00;;;1.50;99.90;;;;;;5035034;28;20368;-71
2023/01/26 00:58:09;;;;;;;96.75;27.23;;;1.60;99.90;;;;;;5034741;28;20083;-71
2023/01/26 01:00:37;;;;;;;79.38;24.67;;;1.60;99.90;;;;;;5034780;28;20124;-71
2023/01/26 01:03:04;;;;;;;84.22;25.83;;;1.60;99.90;;;;;;5034759;28;20021;-71
2023/01/26 01:05:31;;;;;;;86.68;26.15;;;1.60;99.90;;;;;;5034920;28;20025;-71
2023/01/26 01:07:57;;;;;;;91.57;24.27;;;1.60;99.90;;;;;;5034685;28;20128;-71
2023/01/26 01:10:23;;;;;;;93.60;24.45;;;1.60;99.90;;;;;;5013780;28;20117;-71
2023/01/26 01:12:49;;;;;;;86.20;24.52;;;1.60;99.90;;;;;;5014983;28;20033;-71
2023/01/26 01:15:14;;;;;;;91.22;25.33;;;1.70;99.90;;;;;;5045386;28;20387;-71
2023/01/26 01:17:40;;;;;;;79.63;23.40;;;1.60;99.90;;;;;;5054278;28;20502;-71
2023/01/26 01:20:09;;;;;;;83.53;25.35;;;1.60;99.90;;;;;;5054530;28;20489;-71
2023/01/26 01:22:35;;;;;;;81.53;24.15;;;1.70;99.90;;;;;;5054517;28;20122;-71
2023/01/26 01:25:01;;;;;;;74.20;23.77;;;1.70;99.90;;;;;;5050852;28;20038;-71
2023/01/26 01:27:27;;;;;;;79.43;22.92;;;1.70;99.90;;;;;;5034936;28;20471;-72
2023/01/26 01:29:55;;;;;;;69.03;22.75;;;1.60;99.90;;;;;;5034288;28;20060;-72
2023/01/26 01:32:20;;;;;;;67.88;22.98;;;1.70;99.90;;;;;;5034345;28;20181;-72
2023/01/26 01:34:47;;;;;;;68.15;23.05;;;1.70;99.90;;;;;;5034180;28;20025;-72
2023/01/26 01:37:13;;;;;;;78.80;23.88;;;1.70;99.90;;;;;;5033901;28;20032;-72
2023/01/26 01:39:39;;;;;;;73.07;23.20;;;1.70;99.90;;;;;;5034098;28;20021;-72
2023/01/26 01:42:04;;;;;;;74.45;24.05;;;1.70;99.90;;;;;;5034007;28;20029;-72
2023/01/26 01:44:30;;;;;;;82.65;24.30;;;1.70;99.90;;;;;;5034464;28;20021;-72
2023/01/26 01:47:00;;;;;;;76.32;25.17;;;1.70;99.90;;;;;;5033923;28;20080;-73
2023/01/26 01:49:33;;;;;;;76.65;24.75;;;1.80;99.90;;;;;;5034552;28;20057;-73
2023/01/26 01:52:16;;;;;;;69.90;23.98;;;1.70;99.90;;;;;;5034975;28;20029;-72
2023/01/26 01:55:09;;;;;;;71.93;24.13;;;1.70;99.90;;;;;;5034484;28;20104;-73
2023/01/26 01:57:53;;;;;;;68.82;23.08;;;1.70;99.90;;;;;;5031280;28;20399;-72
2023/01/26 02:00:21;;;;;;;62.03;22.50;;;1.70;99.90;;;;;;5033793;28;20031;-72
2023/01/26 02:03:10;;;;;;;77.55;24.75;;;1.70;99.90;;;;;;5033811;28;20427;-72
2023/01/26 02:06:22;;;;;;;81.55;27.10;;;1.70;99.90;;;;;;5033517;28;20387;-72
2023/01/26 02:08:51;;;;;;;76.20;24.65;;;1.70;99.90;;;;;;4973043;28;20440;-72
2023/01/26 02:11:22;;;;;;;74.57;24.73;;;1.70;99.90;;;;;;4972775;28;20496;-72
2023/01/26 02:13:48;;;;;;;74.88;25.35;;;1.70;99.90;;;;;;5007638;28;20034;-72
2023/01/26 02:16:14;;;;;;;67.68;23.85;;;1.70;99.90;;;;;;5033612;28;20573;-72
2023/01/26 02:18:40;;;;;;;69.82;24.42;;;1.80;99.90;;;;;;5033152;28;20029;-72
2023/01/26 02:21:10;;;;;;;73.13;24.02;;;1.70;99.90;;;;;;5033541;28;20075;-72
2023/01/26 02:24:13;;;;;;;69.95;25.42;;;1.70;99.90;;;;;;5033525;28;20092;-72
2023/01/26 02:26:38;;;;;;;56.92;21.85;;;1.70;99.90;;;;;;5033566;28;20049;-72
2023/01/26 02:29:08;;;;;;;69.38;24.67;;;1.70;99.90;;;;;;5033704;28;20076;-72
2023/01/26 02:31:34;;;;;;;65.07;23.30;;;1.70;99.90;;;;;;5033378;28;20125;-72
2023/01/26 02:33:59;;;;;;;75.82;24.85;;;1.70;99.90;;;;;;5033181;28;20081;-71
2023/01/26 02:36:30;;;;;;;68.28;22.25;;;1.70;99.90;;;;;;5032926;28;20029;-72
2023/01/26 02:39:33;;;;;;;74.60;23.60;;;1.70;99.90;;;;;;5033358;28;20074;-72
2023/01/26 02:44:43;;;;;;;69.95;23.10;;;1.70;99.90;;;;;;5033352;28;20029;-72
2023/01/26 02:47:13;;;;;;;68.07;22.80;;;1.70;99.90;;;;;;5033065;28;20022;-72
2023/01/26 02:49:51;;;;;;;75.18;22.75;;;1.70;99.90;;;;;;5033230;28;20017;-72
2023/01/26 02:52:22;;;;;;;62.40;23.42;;;1.70;99.90;;;;;;5032772;28;20018;-72
2023/01/26 02:57:33;;;;;;;70.15;23.10;;;1.70;99.90;;;;;;5032970;28;20029;-72
2023/01/26 02:59:59;;;;;;;79.95;24.70;;;1.70;99.90;;;;;;5033233;28;20029;-72
2023/01/26 03:02:25;;;;;;;67.65;22.52;;;1.70;99.90;;;;;;5033403;28;20487;-72
2023/01/26 03:04:50;;;;;;;65.40;22.08;;;1.70;99.90;;;;;;5033867;28;20100;-72
2023/01/26 03:07:16;;;;;;;67.82;23.33;;;1.80;99.90;;;;;;5037278;28;20025;-72
2023/01/26 03:09:42;;;;;;;66.90;21.85;;;1.70;99.90;;;;;;5036827;28;20029;-72
2023/01/26 03:12:07;;;;;;;67.97;23.17;;;1.80;99.90;;;;;;5037169;28;20026;-72
2023/01/26 03:14:33;;;;;;;70.15;23.30;;;1.80;99.90;;;;;;5036915;28;20033;-72
2023/01/26 03:16:59;;;;;;;69.32;25.15;;;1.80;99.90;;;;;;5037270;28;20070;-72
2023/01/26 03:27:41;;;;;;;59.50;23.05;;;1.80;99.90;;;;;;5036701;28;20080;-72
2023/01/26 03:30:07;;;;;;;61.95;22.90;;;1.80;99.90;;;;;;5036838;28;20033;-72
2023/01/26 03:32:33;;;;;;;63.13;24.13;;;1.80;99.90;;;;;;5036655;28;20022;-72
2023/01/26 03:34:58;;;;;;;59.90;23.00;;;1.80;99.90;;;;;;5036554;28;20395;-72
2023/01/26 03:37:24;;;;;;;60.55;21.10;;;1.80;99.90;;;;;;5036568;28;20025;-72
2023/01/26 03:56:31;;;;;;;51.85;21.75;;;2.00;99.90;;;;;;5036138;28;20115;-72
2023/01/26 03:59:08;;;;;;;50.92;20.58;;;2.00;99.90;;;;;;5036231;28;20506;-72
2023/01/26 04:01:39;;;;;;;54.85;21.23;;;2.10;99.90;;;;;;5036249;28;20022;-72
2023/01/26 04:09:36;;;;;;;51.60;20.58;;;2.10;99.90;;;;;;5035894;28;20036;-73
2023/01/26 04:12:03;;;;;;;62.40;23.48;;;2.10;99.90;;;;;;5035899;28;20065;-72
2023/01/26 04:22:44;;;;;;;57.40;23.42;;;2.00;99.90;;;;;;5016181;28;20121;-73
2023/01/26 04:25:18;;;;;;;53.88;20.90;;;2.00;99.90;;;;;;5015659;28;20022;-72
2023/01/26 04:27:44;;;;;;;70.07;23.42;;;2.00;99.90;;;;;;5033523;28;20392;-72
2023/01/26 04:30:13;;;;;;;56.50;22.30;;;2.00;99.90;;;;;;5035600;28;20064;-72
2023/01/26 04:32:38;;;;;;;57.60;22.83;;;2.00;99.90;;;;;;5035535;28;20514;-72
2023/01/26 04:35:05;;;;;;;68.57;23.48;;;2.00;99.90;;;;;;5035395;28;20033;-72
2023/01/26 04:37:31;;;;;;;63.70;22.35;;;2.00;99.90;;;;;;5035493;28;20038;-72
2023/01/26 04:39:56;;;;;;;84.65;25.67;;;2.00;99.90;;;;;;5035316;28;20052;-72
2023/01/26 04:42:23;;;;;;;62.10;23.20;;;2.10;99.90;;;;;;5035307;28;20024;-72
2023/01/26 04:44:52;;;;;;;58.75;23.20;;;2.10;99.90;;;;;;5034853;28;20503;-72
2023/01/26 04:47:19;;;;;;;56.08;22.33;;;2.00;99.90;;;;;;5035335;28;20096;-72
2023/01/26 04:49:45;;;;;;;66.18;23.75;;;2.00;99.90;;;;;;5035026;28;20412;-72
2023/01/26 04:52:10;;;;;;;61.13;22.92;;;2.10;99.90;;;;;;5017486;28;20018;-72
2023/01/26 04:54:36;;;;;;;94.43;26.73;;;2.10;99.90;;;;;;5035658;28;20380;-72
2023/01/26 04:57:01;;;;;;;69.97;25.08;;;2.10;99.90;;;;;;5034717;28;20029;-72
2023/01/26 04:59:27;;;;;;;56.08;21.65;;;2.10;99.90;;;;;;5035065;28;20037;-72
2023/01/26 05:01:52;;;;;;;62.75;23.90;;;2.10;99.90;;;;;;5017341;28;20101;-72
2023/01/26 05:04:18;;;;;;;101.25;27.10;;;2.10;99.90;;;;;;5034878;28;20021;-72
2023/01/26 05:06:44;;;;;;;59.85;23.10;;;2.20;99.90;;;;;;5034861;28;20017;-72
2023/01/26 05:09:10;;;;;;;70.57;25.63;;;2.20;99.90;;;;;;5034784;28;20028;-72
2023/01/26 05:11:35;;;;;;;82.10;26.35;;;2.20;99.90;;;;;;5034665;28;20124;-72
2023/01/26 05:14:01;;;;;;;66.68;23.75;;;2.20;99.90;;;;;;5034879;28;20033;-72
2023/01/26 05:16:27;;;;;;;64.80;24.63;;;2.20;99.90;;;;;;5034764;28;20033;-72
2023/01/26 05:18:53;;;;;;;65.30;24.50;;;2.20;99.90;;;;;;5034464;28;20099;-72
2023/01/26 05:21:19;;;;;;;66.38;24.95;;;2.20;99.90;;;;;;5034548;28;20025;-72
2023/01/26 05:23:44;;;;;;;97.32;26.60;;;2.30;99.90;;;;;;5034520;28;20151;-73
2023/01/26 05:26:10;;;;;;;64.60;23.55;;;2.20;99.90;;;;;;5034560;28;20030;-72
2023/01/26 05:28:36;;;;;;;79.32;26.63;;;2.30;99.90;;;;;;5034080;28;20041;-73
2023/01/26 05:31:02;;;;;;;72.03;24.58;;;2.30;99.90;;;;;;5034269;28;20033;-72
2023/01/26 05:33:27;;;;;;;68.60;23.42;;;2.30;99.90;;;;;;5034462;28;20025;-72
2023/01/26 05:35:53;;;;;;;67.25;24.52;;;2.30;99.90;;;;;;5034100;28;20021;-72
2023/01/26 05:38:19;;;;;;;72.68;27.08;;;2.30;99.90;;;;;;5024097;28;20024;-72
2023/01/26 05:40:45;;;;;;;72.75;23.40;;;2.30;99.90;;;;;;5014218;28;20018;-72
2023/01/26 05:43:12;;;;;;;107.47;28.00;;;2.30;99.90;;;;;;5014447;28;20033;-72
2023/01/26 05:45:38;;;;;;;69.13;25.42;;;2.30;99.90;;;;;;5014582;28;20435;-72
2023/01/26 05:48:04;;;;;;;84.80;26.48;;;2.30;99.90;;;;;;5014400;28;20484;-73
2023/01/26 05:50:30;;;;;;;65.68;25.65;;;2.30;99.90;;;;;;5014306;28;20061;-73
2023/01/26 05:52:56;;;;;;;157.05;29.25;;;2.30;99.90;;;;;;5014313;28;20025;-73
2023/01/26 05:55:21;;;;;;;123.13;28.13;;;2.30;99.90;;;;;;5014346;28;20041;-72
2023/01/26 05:57:47;;;;;;;74.38;24.58;;;2.40;99.90;;;;;;5018347;28;20033;-72
2023/01/26 06:00:13;;;;;;;73.00;24.92;;;2.40;99.90;;;;;;5034048;28;20056;-72
2023/01/26 06:02:39;;;;;;;82.55;27.55;;;2.40;99.90;;;;;;5033481;28;20472;-72
2023/01/26 06:05:05;;;;;;;115.43;29.58;;;2.40;99.90;;;;;;5033837;28;20029;-73
2023/01/26 06:07:31;;;;;;;76.47;27.42;;;2.30;99.90;;;;;;5033895;28;20136;-72
2023/01/26 06:09:56;;;;;;;117.32;27.65;;;2.40;99.90;;;;;;5033533;28;20569;-72
2023/01/26 06:12:22;;;;;;;137.23;31.92;;;2.40;99.90;;;;;;5033738;28;20022;-72
2023/01/26 06:14:48;;;;;;;126.10;30.85;;;2.30;99.90;;;;;;5033642;28;20115;-72
2023/01/26 06:17:15;;;;;;;94.25;27.65;;;2.40;99.90;;;;;;5033658;28;20025;-73
2023/01/26 06:19:41;;;;;;;115.40;30.42;;;2.30;99.90;;;;;;5033030;28;20092;-72
2023/01/26 06:22:08;;;;;;;135.10;31.27;;;2.40;99.90;;;;;;5033671;28;20059;-73
2023/01/26 06:24:34;;;;;;;92.18;28.60;;;2.40;99.90;;;;;;5033261;28;20026;-72
2023/01/26 06:27:00;;;;;;;122.85;27.48;;;2.40;99.90;;;;;;5033031;28;20053;-73
2023/01/26 06:29:25;;;;;;;89.40;25.50;;;2.40;99.90;;;;;;5033849;28;20051;-73
2023/01/26 06:31:52;;;;;;;83.47;25.55;;;2.50;99.90;;;;;;5033291;28;20056;-73
2023/01/26 06:34:17;;;;;;;93.38;29.20;;;2.50;99.90;;;;;;5033497;28;20462;-72
2023/01/26 06:36:43;;;;;;;137.85;29.90;;;2.50;99.90;;;;;;5033093;28;20117;-73
2023/01/26 06:39:10;;;;;;;156.50;42.25;;;2.60;99.90;;;;;;5033674;28;20068;-73
2023/01/26 06:41:35;;;;;;;178.05;31.48;;;2.60;99.90;;;;;;5033288;28;20025;-73
2023/01/26 06:44:01;;;;;;;151.90;30.50;;;2.70;99.90;;;;;;5034395;28;20087;-73
2023/01/26 06:46:27;;;;;;;346.33;55.00;;;2.70;99.90;;;;;;5033671;28;20072;-72
2023/01/26 06:48:52;;;;;;;322.70;39.88;;;2.70;99.90;;;;;;5033533;28;20107;-72
2023/01/26 06:51:20;;;;;;;152.98;34.17;;;2.70;99.90;;;;;;5019873;28;20368;-72
2023/01/26 06:53:54;;;;;;;203.07;29.10;;;2.70;99.90;;;;;;5053363;28;20060;-73
2023/01/26 06:56:19;;;;;;;;;;;2.60;99.90;;;;;;5053472;28;20036;-72
2023/01/26 06:58:45;;;;;;;222.75;30.55;;;2.60;99.90;;;;;;5050524;28;19909;-72
2023/01/26 07:01:36;;;;;;;106.13;29.77;;;2.60;99.90;;;;;;5032829;28;20042;-72
2023/01/26 07:04:01;;;;;;;151.82;27.45;;;2.50;99.90;;;;;;5033046;28;20491;-72
2023/01/26 07:06:27;;;;;;;137.70;23.88;;;2.50;99.90;;;;;;5032987;28;20025;-73
2023/01/26 07:08:52;;;;;;;56.10;21.42;;;2.40;99.90;;;;;;5045952;28;20033;-73
2023/01/26 07:11:19;;;;;;;52.35;19.63;;;2.40;99.90;;;;;;5033540;28;20467;-73
2023/01/26 07:13:45;;;;;;;63.83;18.60;;;2.40;99.90;;;;;;5032741;28;20021;-72
2023/01/26 07:16:14;;;;;;;73.55;18.88;;;2.30;99.90;;;;;;5033021;28;20021;-72
2023/01/26 07:18:39;;;;;;;157.60;21.63;;;2.30;99.90;;;;;;5032888;28;20030;-73
2023/01/26 07:21:25;;;;;;;87.15;21.00;;;2.30;99.90;;;;;;5031573;28;20021;-72
2023/01/26 07:23:52;;;;;;;74.78;25.23;;;2.30;99.90;;;;;;5032545;28;20037;-73
2023/01/26 07:26:18;;;;;;;83.53;25.02;;;2.30;99.90;;;;;;5032857;28;20049;-73
2023/01/26 07:28:44;;;;;;;65.38;20.98;;;2.30;99.90;;;;;;5033222;28;20045;-71
2023/01/26 07:31:10;;;;;;;96.15;21.83;;;2.30;99.90;;;;;;5032856;28;20034;-71
2023/01/26 07:33:36;;;;;;;77.93;20.40;;;2.20;99.90;;;;;;5032882;28;20108;-72
2023/01/26 07:36:02;;;;;;;159.60;21.63;;;2.20;99.90;;;;;;5032495;28;20068;-72
2023/01/26 07:38:29;;;;;;;151.05;20.35;;;2.20;99.90;;;;;;5032522;28;20033;-72
2023/01/26 07:40:55;;;;;;;58.85;18.30;;;2.20;99.90;;;;;;5032608;28;20471;-71
2023/01/26 07:43:21;;;;;;;60.97;18.98;;;2.20;99.90;;;;;;5033095;28;20382;-71
2023/01/26 07:45:50;;;;;;;59.92;18.15;;;2.30;99.90;;;;;;5032669;28;20025;-72
2023/01/26 07:48:16;;;;;;;71.35;18.92;;;2.30;99.90;;;;;;5032476;28;20068;-71
2023/01/26 07:50:41;;;;;;;83.78;19.95;;;2.30;99.90;;;;;;5032492;28;20434;-71
2023/01/26 07:53:08;;;;;;;49.40;16.15;;;2.30;99.90;;;;;;5018551;28;20045;-71
2023/01/26 07:55:34;;;;;;;58.95;15.95;;;2.40;99.90;;;;;;5051547;28;20382;-71
2023/01/26 07:57:59;;;;;;;65.75;16.25;;;2.50;99.90;;;;;;5055908;28;20100;-72
2023/01/26 08:00:25;;;;;;;66.30;13.18;;;2.50;99.90;;;;;;5055989;28;20120;-71
2023/01/26 08:02:50;;;;;;;59.33;13.82;;;2.60;99.90;;;;;;5055995;28;20100;-71
2023/01/26 08:05:16;;;;;;;72.28;12.75;;;2.50;99.90;;;;;;5053267;28;20036;-72
2023/01/26 08:07:42;;;;;;;81.60;12.38;;;2.60;99.90;;;;;;5017278;28;20021;-71
2023/01/26 08:10:09;;;;;;;69.43;10.43;;;2.60;99.90;;;;;;5015913;28;20026;-71
2023/01/26 08:12:35;;;;;;;57.65;10.02;;;2.70;99.90;;;;;;5016208;28;20037;-71
2023/01/26 08:15:00;;;;;;;70.25;10.75;;;2.80;99.90;;;;;;5015942;28;20026;-71
2023/01/26 08:17:28;;;;;;;57.08;9.25;;;2.80;99.90;;;;;;5016254;28;20085;-71
2023/01/26 08:19:54;;;;;;;66.10;9.93;;;2.80;99.90;;;;;;5015818;28;20030;-71
2023/01/26 08:22:19;;;;;;;65.35;9.18;;;2.90;99.90;;;;;;5016101;28;20026;-71
2023/01/26 08:24:45;;;;;;;68.78;12.30;;;2.90;99.90;;;;;;5015893;28;20084;-71
2023/01/26 08:27:10;;;;;;;68.38;10.82;;;2.90;99.90;;;;;;5022502;28;20343;-71
2023/01/26 08:29:36;;;;;;;58.65;9.88;;;3.00;99.90;;;;;;5035480;28;20104;-72
2023/01/26 08:32:01;;;;;;;70.97;12.85;;;2.90;99.90;;;;;;5035721;28;20033;-71
2023/01/26 08:34:27;;;;;;;55.05;12.30;;;2.80;99.90;;;;;;5035533;28;20406;-72
2023/01/26 08:36:52;;;;;;;55.17;9.82;;;2.80;99.90;;;;;;5035530;28;20030;-72
2023/01/26 08:39:18;;;;;;;72.70;12.30;;;2.80;99.90;;;;;;5035326;28;20438;-71
2023/01/26 08:41:44;;;;;;;89.80;12.90;;;3.00;99.90;;;;;;5035092;28;20017;-71
2023/01/26 08:44:09;;;;;;;91.18;9.27;;;3.20;99.90;;;;;;5036026;28;20040;-71
2023/01/26 08:46:35;;;;;;;70.20;10.98;;;3.40;99.90;;;;;;5035397;28;20093;-71
2023/01/26 08:49:01;;;;;;;71.93;10.85;;;3.60;99.90;;;;;;5035172;28;20040;-71
2023/01/26 08:51:27;;;;;;;69.45;8.82;;;3.70;99.90;;;;;;5035300;28;20044;-71
2023/01/26 08:53:53;;;;;;;72.45;9.13;;;3.80;99.90;;;;;;5035049;28;20480;-72
2023/01/26 08:56:19;;;;;;;85.32;9.93;;;3.90;99.90;;;;;;5033427;28;20487;-71
2023/01/26 08:58:45;;;;;;;88.57;9.35;;;4.00;99.90;;;;;;5035422;28;20079;-71
2023/01/26 09:01:12;;;;;;;96.53;12.07;;;4.10;99.90;;;;;;5033781;28;20025;-71
2023/01/26 09:03:38;;;;;;;64.68;7.85;;;4.30;99.90;;;;;;5034246;28;20029;-71
2023/01/26 09:06:06;;;;;;;72.43;9.18;;;4.40;99.90;;;;;;5035612;28;20018;-71
2023/01/26 09:08:32;;;;;;;82.45;9.55;;;4.50;99.90;;;;;;5035974;28;20391;-71
2023/01/26 09:10:58;;;;;;;92.05;10.20;;;4.50;99.90;;;;;;5035535;28;20075;-71
2023/01/26 09:13:24;;;;;;;67.68;9.57;;;4.60;99.90;;;;;;5034586;28;20025;-71
2023/01/26 09:15:49;;;;;;;68.68;8.40;;;4.60;99.90;;;;;;5034736;28;20387;-71
2023/01/26 09:18:15;;;;;;;59.65;6.85;;;4.70;99.90;;;;;;5034292;28;20022;-71
2023/01/26 09:20:41;;;;;;;102.38;9.38;;;4.70;99.90;;;;;;5034732;28;20173;-71
2023/01/26 09:23:07;;;;;;;68.70;7.97;;;4.80;99.90;;;;;;5034749;28;20022;-71
2023/01/26 09:25:36;;;;;;;71.10;7.68;;;4.80;99.90;;;;;;5034347;28;20101;-71
2023/01/26 09:28:02;;;;;;;83.18;8.68;;;4.90;99.90;;;;;;5015793;28;20045;-71
2023/01/26 09:30:27;;;;;;;69.53;6.28;;;4.90;99.90;;;;;;5014593;28;20041;-71
2023/01/26 09:32:58;;;;;;;64.15;7.53;;;5.00;99.90;;;;;;5028938;28;20025;-72
2023/01/26 09:35:23;;;;;;;79.80;7.20;;;5.00;99.90;;;;;;5014581;28;20506;-71
2023/01/26 09:37:49;;;;;;;63.60;7.13;;;5.10;99.90;;;;;;5014681;28;20034;-71
2023/01/26 09:40:43;;;;;;;71.15;6.80;;;5.10;99.90;;;;;;5027594;28;20022;-71
2023/01/26 09:43:26;;;;;;;59.20;6.50;;;5.10;99.90;;;;;;4998675;28;20033;-71
2023/01/26 09:46:46;;;;;;;53.05;5.90;;;5.10;99.90;;;;;;5034045;28;20510;-71
2023/01/26 09:49:18;;;;;;;58.95;6.60;;;5.20;99.90;;;;;;4953660;29;20035;-71
2023/01/26 09:51:46;;;;;;;58.58;6.90;;;5.10;99.90;;;;;;5020752;28;20475;-71
2023/01/26 09:54:21;;;;;;;56.13;7.72;;;5.20;99.90;;;;;;5034229;28;20068;-71
2023/01/26 09:56:46;;;;;;;51.67;6.47;;;5.30;99.90;;;;;;5033700;28;20037;-71
2023/01/26 09:59:27;;;;;;;49.92;7.72;;;5.40;99.90;;;;;;5033732;28;20033;-71
2023/01/26 10:02:09;;;;;;;60.40;7.80;;;5.60;99.90;;;;;;5033717;28;20033;-71
2023/01/26 10:04:41;;;;;;;65.82;7.50;;;5.70;99.90;;;;;;5033983;28;20025;-71
2023/01/26 10:07:10;;;;;;;65.00;9.23;;;5.60;99.90;;;;;;5033658;28;20068;-71
2023/01/26 10:09:38;;;;;;;66.78;7.47;;;5.60;99.90;;;;;;5033459;28;20021;-71
2023/01/26 10:12:27;;;;;;;45.05;6.38;;;5.70;99.90;;;;;;5033776;28;20499;-71
2023/01/26 10:15:00;;;;;;;65.22;6.55;;;5.70;99.90;;;;;;5033508;28;20025;-71
2023/01/26 10:17:35;;;;;;;60.00;7.43;;;5.80;99.90;;;;;;5016019;28;20025;-71
2023/01/26 10:20:25;;;;;;;42.83;5.35;;;5.80;99.90;;;;;;5032953;28;20453;-71
2023/01/26 10:22:55;;;;;;;66.65;6.63;;;5.70;99.90;;;;;;5033816;28;20017;-71
2023/01/26 10:25:38;;;;;;;57.70;8.27;;;5.80;99.90;;;;;;5033203;28;20021;-71
2023/01/26 10:28:33;;;;;;;60.08;6.82;;;5.80;99.90;;;;;;5033662;28;20485;-71
2023/01/26 10:31:00;;;;;;;54.45;6.25;;;5.90;99.90;;;;;;5031453;28;20091;-71
2023/01/26 10:33:36;;;;;;;37.30;5.72;;;5.90;99.90;;;;;;5015543;28;20361;-71
2023/01/26 10:36:05;;;;;;;57.75;6.43;;;6.00;99.90;;;;;;5013473;28;20037;-71
2023/01/26 10:38:38;;;;;;;45.00;5.85;;;6.00;99.90;;;;;;5025484;28;20028;-72
2023/01/26 10:41:15;;;;;;;46.00;6.18;;;6.20;99.90;;;;;;5033068;28;20378;-71
2023/01/26 10:43:48;;;;;;;65.13;6.93;;;6.10;99.90;;;;;;5033401;28;20184;-71
2023/01/26 10:46:30;;;;;;;37.67;6.45;;;6.00;99.90;;;;;;5033337;28;20029;-72
2023/01/26 10:49:10;;;;;;;59.10;7.20;;;6.00;99.90;;;;;;5033348;28;20029;-71
2023/01/26 10:51:44;;;;;;;39.70;7.53;;;6.00;99.90;;;;;;5031915;28;20032;-71
2023/01/26 10:54:12;;;;;;;;;;;6.10;99.90;;;;;;5033541;28;20029;-71
2023/01/26 10:56:44;;;;;;;31.92;4.82;;;6.10;99.90;;;;;;5032988;28;19915;-72
2023/01/26 10:59:12;;;;;;;59.78;6.30;;;6.20;99.90;;;;;;5033021;28;20032;-71
2023/01/26 11:01:55;;;;;;;39.60;5.20;;;6.30;99.90;;;;;;5033110;28;20471;-71
2023/01/26 11:04:26;;;;;;;43.75;5.15;;;6.20;99.90;;;;;;5033007;28;20092;-70
2023/01/26 11:06:52;;;;;;;42.25;5.20;;;6.30;99.90;;;;;;5032808;28;20030;-71
2023/01/26 11:09:30;;;;;;;33.25;4.57;;;6.30;99.90;;;;;;5014870;28;20112;-71
2023/01/26 11:12:01;;;;;;;30.63;4.95;;;6.30;99.90;;;;;;5032995;28;20029;-71
2023/01/26 11:14:28;;;;;;;39.03;6.25;;;6.30;99.90;;;;;;5032750;28;20104;-71
2023/01/26 11:17:19;;;;;;;34.90;5.53;;;6.30;99.90;;;;;;5032478;28;20018;-71
2023/01/26 11:20:00;;;;;;;34.20;4.60;;;6.40;99.90;;;;;;5032545;28;20025;-71
2023/01/26 11:22:31;;;;;;;37.53;4.45;;;6.20;99.90;;;;;;5032923;28;20352;-71
2023/01/26 11:25:02;;;;;;;39.70;5.07;;;6.20;99.90;;;;;;5033006;28;20029;-71
2023/01/26 11:28:00;;;;;;;44.25;5.97;;;6.10;99.90;;;;;;5017742;28;20095;-71
2023/01/26 11:30:46;;;;;;;20.55;3.70;;;6.20;99.90;;;;;;5030781;28;20172;-72
2023/01/26 11:33:35;;;;;;;38.15;4.53;;;6.30;99.90;;;;;;5037363;28;20395;-71
2023/01/26 11:36:23;;;;;;;40.45;5.85;;;6.40;99.90;;;;;;5037368;28;20052;-72
2023/01/26 11:39:13;;;;;;;33.92;4.15;;;6.30;99.90;;;;;;5036832;28;20029;-71
2023/01/26 11:42:05;;;;;;;43.42;5.03;;;6.20;99.90;;;;;;5036305;28;20053;-72
2023/01/26 11:44:47;;;;;;;49.03;5.72;;;6.30;99.90;;;;;;5017122;28;20046;-71
2023/01/26 11:47:34;;;;;;;31.45;4.43;;;6.40;99.90;;;;;;5016551;28;20022;-72
2023/01/26 11:50:17;;;;;;;32.38;4.82;;;6.40;99.90;;;;;;5016540;28;20022;-73
2023/01/26 11:52:51;;;;;;;41.85;5.22;;;6.40;99.90;;;;;;5035053;28;20058;-72
2023/01/26 11:55:40;;;;;;;26.42;5.35;;;6.30;99.90;;;;;;5035902;28;20032;-72
2023/01/26 11:58:16;;;;;;;27.95;5.03;;;6.40;99.90;;;;;;5024787;28;20044;-72
2023/01/26 12:00:50;;;;;;;35.13;4.55;;;6.40;99.90;;;;;;5036056;28;20113;-72
2023/01/26 12:03:26;;;;;;;37.25;4.78;;;6.50;99.90;;;;;;5036090;28;20388;-72
2023/01/26 12:06:00;;;;;;;30.83;4.32;;;6.40;99.90;;;;;;5033473;28;20091;-72
2023/01/26 12:08:37;;;;;;;;;;;6.40;99.90;;;;;;5016684;28;20024;-71
2023/01/26 12:11:28;;;;;;;41.80;6.40;;;6.60;99.90;;;;;;5015813;28;20335;-72
2023/01/26 12:14:19;;;;;;;41.05;3.80;;;6.60;99.90;;;;;;5015418;28;20553;-72
2023/01/26 12:17:03;;;;;;;43.88;4.78;;;6.50;99.90;;;;;;5015905;28;20091;-72
2023/01/26 12:20:04;;;;;;;37.65;4.05;;;6.40;99.90;;;;;;5015871;28;20037;-72
2023/01/26 12:22:35;;;;;;;32.20;3.92;;;6.30;99.90;;;;;;5015878;28;20061;-71
2023/01/26 12:25:26;;;;;;;27.80;3.92;;;6.20;99.90;;;;;;5015767;28;20022;-72
2023/01/26 12:28:07;;;;;;;29.30;4.70;;;6.40;99.90;;;;;;5015707;28;20054;-72
2023/01/26 12:30:54;;;;;;;22.65;3.97;;;6.70;99.90;;;;;;5015287;28;20069;-72
2023/01/26 12:33:19;;;;;;;22.10;4.68;;;6.70;99.90;;;;;;5031280;28;20025;-72
2023/01/26 12:36:25;;;;;;;34.97;4.63;;;6.60;99.90;;;;;;5035301;28;20369;-72
2023/01/26 12:39:10;;;;;;;43.40;5.85;;;6.70;99.90;;;;;;5034253;28;20031;-72
2023/01/26 12:41:57;;;;;;;27.20;4.28;;;6.80;99.90;;;;;;5017513;28;20163;-72
2023/01/26 12:44:30;;;;;;;35.15;4.60;;;6.80;99.90;;;;;;5035268;28;20029;-72
2023/01/26 12:47:06;;;;;;;29.95;3.72;;;7.00;99.90;;;;;;5035717;28;20009;-72
2023/01/26 12:49:42;;;;;;;32.88;4.90;;;7.00;99.90;;;;;;5034829;28;20184;-72
2023/01/26 12:52:16;;;;;;;34.63;5.25;;;6.90;99.90;;;;;;5034956;28;20060;-71
2023/01/26 12:54:45;;;;;;;30.85;5.05;;;6.80;99.90;;;;;;5034701;28;20399;-72
2023/01/26 12:57:21;;;;;;;28.60;6.35;;;6.70;99.90;;;;;;5034736;28;20025;-71
2023/01/26 12:59:47;;;;;;;29.98;4.50;;;6.90;99.90;;;;;;5034790;28;20495;-72
2023/01/26 13:02:28;;;;;;;31.35;5.50;;;7.10;99.90;;;;;;5034879;28;20034;-71
2023/01/26 13:04:55;;;;;;;32.58;5.38;;;6.90;99.90;;;;;;5034909;28;20029;-72
2023/01/26 13:07:50;;;;;;;39.63;5.53;;;6.70;99.90;;;;;;5035042;28;20075;-71
2023/01/26 13:10:17;;;;;;;45.55;6.00;;;6.70;99.90;;;;;;5018066;28;20046;-72
2023/01/26 13:12:56;;;;;;;31.58;4.93;;;6.90;99.90;;;;;;5034819;28;20017;-73
2023/01/26 13:15:25;;;;;;;27.55;4.70;;;7.40;99.90;;;;;;5034854;28;20037;-73
2023/01/26 13:17:59;;;;;;;28.77;5.45;;;7.70;99.90;;;;;;5034795;28;20029;-72
2023/01/26 13:20:47;;;;;;;27.08;5.30;;;7.70;99.90;;;;;;5034353;28;20072;-73
2023/01/26 13:23:39;;;;;;;30.60;5.60;;;7.40;99.90;;;;;;5016936;28;20030;-72
2023/01/26 13:26:15;;;;;;;28.02;5.25;;;7.00;99.90;;;;;;5034472;28;20537;-73
2023/01/26 13:28:41;;;;;;;33.42;6.43;;;6.50;99.90;;;;;;5034816;28;20049;-73
2023/01/26 13:31:08;;;;;;;26.27;4.93;;;6.50;99.90;;;;;;5034409;28;20018;-73
2023/01/26 13:33:34;;;;;;;35.10;4.80;;;6.80;99.90;;;;;;5034427;28;20017;-74
2023/01/26 13:36:04;;;;;;;32.83;5.00;;;7.10;99.90;;;;;;5033555;28;20072;-73
2023/01/26 13:38:40;;;;;;;18.23;5.03;;;7.10;99.90;;;;;;5021738;28;20022;-73
2023/01/26 13:41:09;;;;;;;24.33;4.25;;;6.90;99.90;;;;;;5028245;28;20450;-74
2023/01/26 13:43:43;;;;;;;36.03;5.30;;;6.50;99.90;;;;;;5020856;28;20029;-74